Nyk Arcadia — 3EXI5 — position and weather

sailwx.info

Track history (hours):
 
Tides and Currents Weather Stations Pressure Air Temp Water Temp Dewpoint Dewpoint Depression Visibility Wind Speed Wind Dir Waves Ship Positions

Nyk Arcadia

Last reported at 2018-Feb-25 09:59 UTC. Time now 2018-Feb-25 10:08 UTC.
Position N 34°38' E 135°16'.

Length 332 m; draft 13.7 m.

Type: Other ship. MMSI: 353523986.

Date/timePositionNaut miles runAvg speedWind from/ knotsBaromVisibWave heightAir tempDewpointWater temp
2018-Feb-25 09:59N 34°38' E 135°16'0 0.0
2018-Feb-25 09:29N 34°38' E 135°16'0 0.0
2018-Feb-25 08:59N 34°38' E 135°16'0 0.0
2018-Feb-25 08:29N 34°38' E 135°16'0 0.0
2018-Feb-25 07:59N 34°38' E 135°16'0 0.1
2018-Feb-25 07:29N 34°38' E 135°16'0 0.0
2018-Feb-25 06:59N 34°38' E 135°16'0 0.0
2018-Feb-25 06:29N 34°38' E 135°16'0 0.0
2018-Feb-25 05:59N 34°38' E 135°16'0 0.0
2018-Feb-25 05:29N 34°38' E 135°16'0 0.0
2018-Feb-25 04:59N 34°38' E 135°16'0 0.0
2018-Feb-25 04:29N 34°38' E 135°16'0 0.1
2018-Feb-25 03:59N 34°38' E 135°16'0 0.0
2018-Feb-25 03:29N 34°38' E 135°16'0 0.0
2018-Feb-25 02:59N 34°38' E 135°16'0 0.1
2018-Feb-25 02:29N 34°38' E 135°16'0 0.0
2018-Feb-25 01:59N 34°38' E 135°16'0 0.0
2018-Feb-25 01:29N 34°38' E 135°16'0 0.0
2018-Feb-25 00:59N 34°38' E 135°16'0 0.1
2018-Feb-25 00:29N 34°37' E 135°16'1 1.6
2018-Feb-25 00:00N 34°37' E 135°15'612.1
2018-Feb-24 23:31N 34°31' E 135°13'816.9
2018-Feb-24 23:00N 34°25' E 135°06'816.9
2018-Feb-24 22:31N 34°18' E 134°59'816.4
2018-Feb-24 22:00N 34°10' E 134°59'3 5.9
2018-Feb-24 21:30N 34°07' E 134°59'5 9.9
2018-Feb-24 21:00N 34°02' E 134°59'611.0
2018-Feb-24 20:30N 33°57' E 134°60'611.2
2018-Feb-24 20:00N 33°51' E 134°60'611.5
2018-Feb-24 19:30N 33°45' E 135°00'612.9
2018-Feb-24 19:00N 33°40' E 135°04'913.9
2018-Feb-24 18:22N 33°32' E 135°10'513.4
2018-Feb-24 18:01N 33°30' E 135°15'914.4
2018-Feb-24 17:23N 33°26' E 135°25'148 9.2
2018-Feb-24 01:15N 33°54' E 138°19'513.4
2018-Feb-24 00:54N 33°56' E 138°25'513.4
2018-Feb-24 00:30N 33°57' E 138°31'913.3
2018-Feb-23 23:51N 33°59' E 138°41'713.4
2018-Feb-23 23:22N 34°01' E 138°49'1813.8
2018-Feb-23 22:02N 34°06' E 139°10'013.9
2018-Feb-23 22:00N 34°06' E 139°11'713.6
2018-Feb-23 21:29N 34°10' E 139°18'1414.0
2018-Feb-23 20:30N 34°22' E 139°24'713.5
2018-Feb-23 20:00N 34°29' E 139°27'914.2
2018-Feb-23 19:24N 34°37' E 139°31'614.3
2018-Feb-23 19:00N 34°42' E 139°33'714.9
2018-Feb-23 18:31N 34°49' E 139°36'714.9
2018-Feb-23 18:00N 34°56' E 139°40'713.9
2018-Feb-23 17:30N 35°03' E 139°42'713.9
2018-Feb-23 17:00N 35°09' E 139°45'611.2
2018-Feb-23 16:30N 35°15' E 139°46'612.2
2018-Feb-23 16:01N 35°20' E 139°42'612.7
2018-Feb-23 15:30N 35°26' E 139°45'714.7
2018-Feb-23 15:01N 35°31' E 139°51'611.9
2018-Feb-23 14:30N 35°36' E 139°47'0 0.4
2018-Feb-23 13:54N 35°36' E 139°46'0 0.0
2018-Feb-23 13:27N 35°36' E 139°46'0 0.0
2018-Feb-23 12:57N 35°36' E 139°46'0 0.0
2018-Feb-23 12:30N 35°36' E 139°46'0 0.0
2018-Feb-23 12:00N 35°36' E 139°46'0 0.0
2018-Feb-23 11:24N 35°36' E 139°46'0 0.0
2018-Feb-23 10:57N 35°36' E 139°46'0 0.0
2018-Feb-23 10:21N 35°36' E 139°46'0 0.0
2018-Feb-23 10:00N 35°36' E 139°46'0 0.0
2018-Feb-23 09:21N 35°36' E 139°46'0 0.0
2018-Feb-23 08:33N 35°36' E 139°46'0 0.0
2018-Feb-23 07:12N 35°36' E 139°46'0 0.0
2018-Feb-23 07:00N 35°36' E 139°46'0 0.0
2018-Feb-23 06:30N 35°36' E 139°46'0 0.0
2018-Feb-23 05:54N 35°36' E 139°46'0 0.0
2018-Feb-23 05:21N 35°36' E 139°46'0 0.0
2018-Feb-23 04:48N 35°36' E 139°46'0 0.0
2018-Feb-23 04:30N 35°36' E 139°46'0 0.0
2018-Feb-23 03:06N 35°36' E 139°46'0 0.0
2018-Feb-23 02:54N 35°36' E 139°46'0 0.0
2018-Feb-23 02:30N 35°36' E 139°46'0 0.0
2018-Feb-23 02:00N 35°36' E 139°46'0 0.0
2018-Feb-23 01:30N 35°36' E 139°46'0 0.0
2018-Feb-23 01:00N 35°36' E 139°46'0 0.0
2018-Feb-23 00:24N 35°36' E 139°46'0 0.0
2018-Feb-22 23:18N 35°36' E 139°46'0 0.0
2018-Feb-22 22:54N 35°36' E 139°46'0 0.3
2018-Feb-22 22:30N 35°36' E 139°47'4 7.8
2018-Feb-22 22:00N 35°33' E 139°50'4 8.9
2018-Feb-22 21:30N 35°29' E 139°52'5 9.3
2018-Feb-22 21:00N 35°26' E 139°48'611.9
2018-Feb-22 20:30N 35°20' E 139°45'511.1
2018-Feb-22 20:01N 35°15' E 139°47'611.5
2018-Feb-22 19:31N 35°09' E 139°47'4 8.9
2018-Feb-22 19:00N 35°05' E 139°45'713.8
2018-Feb-22 18:30N 34°58' E 139°43'713.9
2018-Feb-22 18:00N 34°51' E 139°42'713.9
2018-Feb-22 17:30N 34°45' E 139°40'714.5
2018-Feb-22 17:00N 34°37' E 139°39'3 6.2
2018-Feb-22 16:29N 34°34' E 139°39'0 1.0
2018-Feb-22 16:00N 34°35' E 139°39'0 0.8
2018-Feb-22 15:25N 34°35' E 139°39'0 0.6
2018-Feb-22 14:52N 34°36' E 139°39'0 0.5
2018-Feb-22 14:28N 34°36' E 139°39'0 0.4
2018-Feb-22 13:58N 34°36' E 139°39'0 0.3
2018-Feb-22 13:18N 34°36' E 139°39'0 0.3
2018-Feb-22 12:58N 34°36' E 139°39'0 0.3
2018-Feb-22 12:29N 34°36' E 139°39'4 3.6
2018-Feb-22 11:20N 34°36' E 139°34'1913.9
2018-Feb-22 10:00N 34°34' E 139°12'1014.6
2018-Feb-22 09:21N 34°31' E 139°01'615.2
2018-Feb-22 08:58N 34°30' E 138°54'714.5
2018-Feb-22 08:29N 34°29' E 138°45'714.2
2018-Feb-22 08:00N 34°30' E 138°37'714.4
2018-Feb-22 07:30N 34°30' E 138°28'714.0
2018-Feb-22 07:00N 34°30' E 138°20'714.9
2018-Feb-22 06:30N 34°30' E 138°11'815.4
2018-Feb-22 05:58N 34°30' E 138°01'715.7
2018-Feb-22 05:30N 34°30' E 137°52'816.0
2018-Feb-22 05:00N 34°29' E 137°42'1515.4
2018-Feb-22 04:00N 34°28' E 137°24'2612.7
2018-Feb-22 01:57N 34°37' E 136°54'917.5
2018-Feb-22 01:25N 34°45' E 136°47'817.6
2018-Feb-22 01:00N 34°52' E 136°46'816.0
2018-Feb-22 00:30N 34°60' E 136°49'2 4.0
2018-Feb-22 00:01N 35°01' E 136°50'0 0.3
2018-Feb-21 23:29N 35°02' E 136°49'0 0.0
2018-Feb-21 22:59N 35°02' E 136°49'0 0.0
2018-Feb-21 22:29N 35°02' E 136°49'0 0.0
2018-Feb-21 21:59N 35°02' E 136°49'0 0.0
2018-Feb-21 21:29N 35°02' E 136°49'0 0.0
2018-Feb-21 20:59N 35°02' E 136°49'0 0.0
2018-Feb-21 20:29N 35°02' E 136°49'0 0.0
2018-Feb-21 19:59N 35°02' E 136°49'0 0.0
2018-Feb-21 19:29N 35°02' E 136°49'0 0.0
2018-Feb-21 18:59N 35°02' E 136°49'0 0.0
2018-Feb-21 18:29N 35°02' E 136°49'0 0.0
2018-Feb-21 17:59N 35°02' E 136°49'0 0.0
2018-Feb-21 17:29N 35°02' E 136°49'0 0.0
2018-Feb-21 16:59N 35°02' E 136°49'0 0.0
2018-Feb-21 16:29N 35°02' E 136°49'0 0.0
2018-Feb-21 15:59N 35°02' E 136°49'0 0.0
2018-Feb-21 15:29N 35°02' E 136°49'0 0.0
2018-Feb-21 14:59N 35°02' E 136°49'0 0.0
2018-Feb-21 14:29N 35°02' E 136°49'0 0.0
2018-Feb-21 13:59N 35°02' E 136°49'0 0.0
2018-Feb-21 13:29N 35°02' E 136°49'0 0.0
2018-Feb-21 12:59N 35°02' E 136°49'0 0.0
2018-Feb-21 12:29N 35°02' E 136°49'0 0.0
2018-Feb-21 11:59N 35°02' E 136°49'0 0.0
2018-Feb-21 11:29N 35°02' E 136°49'0 0.0
2018-Feb-21 10:59N 35°02' E 136°49'0 0.0
2018-Feb-21 10:29N 35°02' E 136°49'0 0.0
2018-Feb-21 09:59N 35°02' E 136°49'0 0.0
2018-Feb-21 09:29N 35°02' E 136°49'0 0.0
2018-Feb-21 08:59N 35°02' E 136°49'0 0.0
2018-Feb-21 08:29N 35°02' E 136°49'0 0.0
2018-Feb-21 07:59N 35°02' E 136°49'0 0.0
2018-Feb-21 07:29N 35°02' E 136°49'0 0.0
2018-Feb-21 06:59N 35°02' E 136°49'0 0.0
2018-Feb-21 06:29N 35°02' E 136°49'0 0.0
2018-Feb-21 05:59N 35°02' E 136°49'0 0.0
2018-Feb-21 05:29N 35°02' E 136°49'0 0.0
2018-Feb-21 04:59N 35°02' E 136°49'0 0.0
2018-Feb-21 04:29N 35°02' E 136°49'0 0.0
2018-Feb-21 03:59N 35°02' E 136°49'0 0.0
2018-Feb-21 03:30N 35°02' E 136°49'1 2.3
2018-Feb-21 03:00N 35°01' E 136°50'5 9.7
2018-Feb-21 02:30N 34°56' E 136°47'510.2
2018-Feb-21 02:00N 34°51' E 136°47'4 8.2
2018-Feb-21 01:30N 34°47' E 136°47'612.9
2018-Feb-21 01:00N 34°42' E 136°52'815.3
2018-Feb-21 00:30N 34°36' E 136°58'713.5
2018-Feb-21 00:00N 34°31' E 137°03'611.3
2018-Feb-20 23:30N 34°25' E 137°03'2915.0
2018-Feb-20 21:34N 33°59' E 136°48'118.6
2018-Feb-20 21:30N 33°59' E 136°47'1018.1
2018-Feb-20 20:59N 33°52' E 136°39'2418.3
2018-Feb-20 19:40N 33°36' E 136°17'6615.4
2018-Feb-20 15:21N 33°48' E 134°59'719.4
2018-Feb-20 15:01N 33°55' E 134°58'1020.0
2018-Feb-20 14:30N 34°05' E 134°58'917.7
2018-Feb-20 14:00N 34°14' E 134°58'613.1
2018-Feb-20 13:30N 34°20' E 134°59'917.8
2018-Feb-20 13:00N 34°27' E 135°06'1019.0
2018-Feb-20 12:30N 34°34' E 135°15'714.3
2018-Feb-20 12:00N 34°40' E 135°18'1 2.0
2018-Feb-20 11:30N 34°41' E 135°17'0 0.6
2018-Feb-20 10:58N 34°41' E 135°17'0 0.0
2018-Feb-20 10:28N 34°41' E 135°17'0 0.0
2018-Feb-20 09:58N 34°41' E 135°17'0 0.0
2018-Feb-20 09:28N 34°41' E 135°17'0 0.0
2018-Feb-20 08:58N 34°41' E 135°17'0 0.0
2018-Feb-20 08:28N 34°41' E 135°17'0 0.0
2018-Feb-20 07:58N 34°41' E 135°17'0 0.0
2018-Feb-20 07:28N 34°41' E 135°17'0 0.0
2018-Feb-20 06:58N 34°41' E 135°17'0 0.0
2018-Feb-20 06:28N 34°41' E 135°17'0 0.0
2018-Feb-20 05:58N 34°41' E 135°17'0 0.0
2018-Feb-20 05:28N 34°41' E 135°17'0 0.0
2018-Feb-20 04:58N 34°41' E 135°17'0 0.0
2018-Feb-20 04:28N 34°41' E 135°17'0 0.0
2018-Feb-20 03:58N 34°41' E 135°17'0 0.0
2018-Feb-20 03:28N 34°41' E 135°17'0 0.0
2018-Feb-20 02:58N 34°41' E 135°17'0 0.0
2018-Feb-20 02:28N 34°41' E 135°17'0 0.0
2018-Feb-20 01:58N 34°41' E 135°17'0 0.0
2018-Feb-20 01:28N 34°41' E 135°17'0 0.0
2018-Feb-20 00:58N 34°41' E 135°17'0 0.0
2018-Feb-20 00:28N 34°41' E 135°17'0 0.0
2018-Feb-19 23:58N 34°41' E 135°17'0 0.0
2018-Feb-19 23:28N 34°41' E 135°17'0 0.0
2018-Feb-19 22:58N 34°41' E 135°17'0 0.9
2018-Feb-19 22:30N 34°41' E 135°18'3 6.1
2018-Feb-19 22:00N 34°38' E 135°18'714.8
2018-Feb-19 21:31N 34°32' E 135°13'917.7
2018-Feb-19 21:00N 34°25' E 135°06'917.4
2018-Feb-19 20:31N 34°18' E 135°00'714.4
2018-Feb-19 20:01N 34°11' E 135°01'611.0
2018-Feb-19 19:31N 34°05' E 135°01'815.5
2018-Feb-19 19:00N 33°58' E 135°01'816.8
2018-Feb-19 18:30N 33°49' E 134°59'816.9
2018-Feb-19 18:00N 33°42' E 134°55'916.8
2018-Feb-19 17:30N 33°35' E 134°49'1217.0
2018-Feb-19 16:46N 33°25' E 134°40'78318.9
2018-Feb-17 23:15N 24°34' E 123°42'518.9
2018-Feb-17 23:01N 24°31' E 123°38'918.9
2018-Feb-17 22:31N 24°25' E 123°30'1019.1
2018-Feb-17 22:00N 24°18' E 123°23'918.4
2018-Feb-17 21:30N 24°11' E 123°16'918.6
2018-Feb-17 21:01N 24°03' E 123°11'918.8
2018-Feb-17 20:31N 23°55' E 123°06'1019.2
2018-Feb-17 20:00N 23°46' E 123°02'1019.1
2018-Feb-17 19:30N 23°38' E 122°56'  
Track history (hours):
 
Tides and Currents Weather Stations Pressure Air Temp Water Temp Dewpoint Dewpoint Depression Visibility Wind Speed Wind Dir Waves Ship Positions

Nyk Arcadia

Last reported at 2018-Feb-25 09:59 UTC. Time now 2018-Feb-25 10:08 UTC.
Position N 34°38' E 135°16'.

Length 332 m; draft 13.7 m.

Type: Other ship. MMSI: 353523986.

Date/timePositionNaut miles runAvg speedWind from/ knotsBaromVisibWave heightAir tempDewpointWater temp
2018-Feb-25 09:59N 34°38' E 135°16'0 0.0
2018-Feb-25 09:29N 34°38' E 135°16'0 0.0
2018-Feb-25 08:59N 34°38' E 135°16'0 0.0
2018-Feb-25 08:29N 34°38' E 135°16'0 0.0
2018-Feb-25 07:59N 34°38' E 135°16'0 0.1
2018-Feb-25 07:29N 34°38' E 135°16'0 0.0
2018-Feb-25 06:59N 34°38' E 135°16'0 0.0
2018-Feb-25 06:29N 34°38' E 135°16'0 0.0
2018-Feb-25 05:59N 34°38' E 135°16'0 0.0
2018-Feb-25 05:29N 34°38' E 135°16'0 0.0
2018-Feb-25 04:59N 34°38' E 135°16'0 0.0
2018-Feb-25 04:29N 34°38' E 135°16'0 0.1
2018-Feb-25 03:59N 34°38' E 135°16'0 0.0
2018-Feb-25 03:29N 34°38' E 135°16'0 0.0
2018-Feb-25 02:59N 34°38' E 135°16'0 0.1
2018-Feb-25 02:29N 34°38' E 135°16'0 0.0
2018-Feb-25 01:59N 34°38' E 135°16'0 0.0
2018-Feb-25 01:29N 34°38' E 135°16'0 0.0
2018-Feb-25 00:59N 34°38' E 135°16'0 0.1
2018-Feb-25 00:29N 34°37' E 135°16'1 1.6
2018-Feb-25 00:00N 34°37' E 135°15'612.1
2018-Feb-24 23:31N 34°31' E 135°13'816.9
2018-Feb-24 23:00N 34°25' E 135°06'816.9
2018-Feb-24 22:31N 34°18' E 134°59'816.4
2018-Feb-24 22:00N 34°10' E 134°59'3 5.9
2018-Feb-24 21:30N 34°07' E 134°59'5 9.9
2018-Feb-24 21:00N 34°02' E 134°59'611.0
2018-Feb-24 20:30N 33°57' E 134°60'611.2
2018-Feb-24 20:00N 33°51' E 134°60'611.5
2018-Feb-24 19:30N 33°45' E 135°00'612.9
2018-Feb-24 19:00N 33°40' E 135°04'913.9
2018-Feb-24 18:22N 33°32' E 135°10'513.4
2018-Feb-24 18:01N 33°30' E 135°15'914.4
2018-Feb-24 17:23N 33°26' E 135°25'148 9.2
2018-Feb-24 01:15N 33°54' E 138°19'513.4
2018-Feb-24 00:54N 33°56' E 138°25'513.4
2018-Feb-24 00:30N 33°57' E 138°31'913.3
2018-Feb-23 23:51N 33°59' E 138°41'713.4
2018-Feb-23 23:22N 34°01' E 138°49'1813.8
2018-Feb-23 22:02N 34°06' E 139°10'013.9
2018-Feb-23 22:00N 34°06' E 139°11'713.6
2018-Feb-23 21:29N 34°10' E 139°18'1414.0
2018-Feb-23 20:30N 34°22' E 139°24'713.5
2018-Feb-23 20:00N 34°29' E 139°27'914.2
2018-Feb-23 19:24N 34°37' E 139°31'614.3
2018-Feb-23 19:00N 34°42' E 139°33'714.9
2018-Feb-23 18:31N 34°49' E 139°36'714.9
2018-Feb-23 18:00N 34°56' E 139°40'713.9
2018-Feb-23 17:30N 35°03' E 139°42'713.9
2018-Feb-23 17:00N 35°09' E 139°45'611.2
2018-Feb-23 16:30N 35°15' E 139°46'612.2
2018-Feb-23 16:01N 35°20' E 139°42'612.7
2018-Feb-23 15:30N 35°26' E 139°45'714.7
2018-Feb-23 15:01N 35°31' E 139°51'611.9
2018-Feb-23 14:30N 35°36' E 139°47'0 0.4
2018-Feb-23 13:54N 35°36' E 139°46'0 0.0
2018-Feb-23 13:27N 35°36' E 139°46'0 0.0
2018-Feb-23 12:57N 35°36' E 139°46'0 0.0
2018-Feb-23 12:30N 35°36' E 139°46'0 0.0
2018-Feb-23 12:00N 35°36' E 139°46'0 0.0
2018-Feb-23 11:24N 35°36' E 139°46'0 0.0
2018-Feb-23 10:57N 35°36' E 139°46'0 0.0
2018-Feb-23 10:21N 35°36' E 139°46'0 0.0
2018-Feb-23 10:00N 35°36' E 139°46'0 0.0
2018-Feb-23 09:21N 35°36' E 139°46'0 0.0
2018-Feb-23 08:33N 35°36' E 139°46'0 0.0
2018-Feb-23 07:12N 35°36' E 139°46'0 0.0
2018-Feb-23 07:00N 35°36' E 139°46'0 0.0
2018-Feb-23 06:30N 35°36' E 139°46'0 0.0
2018-Feb-23 05:54N 35°36' E 139°46'0 0.0
2018-Feb-23 05:21N 35°36' E 139°46'0 0.0
2018-Feb-23 04:48N 35°36' E 139°46'0 0.0
2018-Feb-23 04:30N 35°36' E 139°46'0 0.0
2018-Feb-23 03:06N 35°36' E 139°46'0 0.0
2018-Feb-23 02:54N 35°36' E 139°46'0 0.0
2018-Feb-23 02:30N 35°36' E 139°46'0 0.0
2018-Feb-23 02:00N 35°36' E 139°46'0 0.0
2018-Feb-23 01:30N 35°36' E 139°46'0 0.0
2018-Feb-23 01:00N 35°36' E 139°46'0 0.0
2018-Feb-23 00:24N 35°36' E 139°46'0 0.0
2018-Feb-22 23:18N 35°36' E 139°46'0 0.0
2018-Feb-22 22:54N 35°36' E 139°46'0 0.3
2018-Feb-22 22:30N 35°36' E 139°47'4 7.8
2018-Feb-22 22:00N 35°33' E 139°50'4 8.9
2018-Feb-22 21:30N 35°29' E 139°52'5 9.3
2018-Feb-22 21:00N 35°26' E 139°48'611.9
2018-Feb-22 20:30N 35°20' E 139°45'511.1
2018-Feb-22 20:01N 35°15' E 139°47'611.5
2018-Feb-22 19:31N 35°09' E 139°47'4 8.9
2018-Feb-22 19:00N 35°05' E 139°45'713.8
2018-Feb-22 18:30N 34°58' E 139°43'713.9
2018-Feb-22 18:00N 34°51' E 139°42'713.9
2018-Feb-22 17:30N 34°45' E 139°40'714.5
2018-Feb-22 17:00N 34°37' E 139°39'3 6.2
2018-Feb-22 16:29N 34°34' E 139°39'0 1.0
2018-Feb-22 16:00N 34°35' E 139°39'0 0.8
2018-Feb-22 15:25N 34°35' E 139°39'0 0.6
2018-Feb-22 14:52N 34°36' E 139°39'0 0.5
2018-Feb-22 14:28N 34°36' E 139°39'0 0.4
2018-Feb-22 13:58N 34°36' E 139°39'0 0.3
2018-Feb-22 13:18N 34°36' E 139°39'0 0.3
2018-Feb-22 12:58N 34°36' E 139°39'0 0.3
2018-Feb-22 12:29N 34°36' E 139°39'4 3.6
2018-Feb-22 11:20N 34°36' E 139°34'1913.9
2018-Feb-22 10:00N 34°34' E 139°12'1014.6
2018-Feb-22 09:21N 34°31' E 139°01'615.2
2018-Feb-22 08:58N 34°30' E 138°54'714.5
2018-Feb-22 08:29N 34°29' E 138°45'714.2
2018-Feb-22 08:00N 34°30' E 138°37'714.4
2018-Feb-22 07:30N 34°30' E 138°28'714.0
2018-Feb-22 07:00N 34°30' E 138°20'714.9
2018-Feb-22 06:30N 34°30' E 138°11'815.4
2018-Feb-22 05:58N 34°30' E 138°01'715.7
2018-Feb-22 05:30N 34°30' E 137°52'816.0
2018-Feb-22 05:00N 34°29' E 137°42'1515.4
2018-Feb-22 04:00N 34°28' E 137°24'2612.7
2018-Feb-22 01:57N 34°37' E 136°54'917.5
2018-Feb-22 01:25N 34°45' E 136°47'817.6
2018-Feb-22 01:00N 34°52' E 136°46'816.0
2018-Feb-22 00:30N 34°60' E 136°49'2 4.0
2018-Feb-22 00:01N 35°01' E 136°50'0 0.3
2018-Feb-21 23:29N 35°02' E 136°49'0 0.0
2018-Feb-21 22:59N 35°02' E 136°49'0 0.0
2018-Feb-21 22:29N 35°02' E 136°49'0 0.0
2018-Feb-21 21:59N 35°02' E 136°49'0 0.0
2018-Feb-21 21:29N 35°02' E 136°49'0 0.0
2018-Feb-21 20:59N 35°02' E 136°49'0 0.0
2018-Feb-21 20:29N 35°02' E 136°49'0 0.0
2018-Feb-21 19:59N 35°02' E 136°49'0 0.0
2018-Feb-21 19:29N 35°02' E 136°49'0 0.0
2018-Feb-21 18:59N 35°02' E 136°49'0 0.0
2018-Feb-21 18:29N 35°02' E 136°49'0 0.0
2018-Feb-21 17:59N 35°02' E 136°49'0 0.0
2018-Feb-21 17:29N 35°02' E 136°49'0 0.0
2018-Feb-21 16:59N 35°02' E 136°49'0 0.0
2018-Feb-21 16:29N 35°02' E 136°49'0 0.0
2018-Feb-21 15:59N 35°02' E 136°49'0 0.0
2018-Feb-21 15:29N 35°02' E 136°49'0 0.0
2018-Feb-21 14:59N 35°02' E 136°49'0 0.0
2018-Feb-21 14:29N 35°02' E 136°49'0 0.0
2018-Feb-21 13:59N 35°02' E 136°49'0 0.0
2018-Feb-21 13:29N 35°02' E 136°49'0 0.0
2018-Feb-21 12:59N 35°02' E 136°49'0 0.0
2018-Feb-21 12:29N 35°02' E 136°49'0 0.0
2018-Feb-21 11:59N 35°02' E 136°49'0 0.0
2018-Feb-21 11:29N 35°02' E 136°49'0 0.0
2018-Feb-21 10:59N 35°02' E 136°49'0 0.0
2018-Feb-21 10:29N 35°02' E 136°49'0 0.0
2018-Feb-21 09:59N 35°02' E 136°49'0 0.0
2018-Feb-21 09:29N 35°02' E 136°49'0 0.0
2018-Feb-21 08:59N 35°02' E 136°49'0 0.0
2018-Feb-21 08:29N 35°02' E 136°49'0 0.0
2018-Feb-21 07:59N 35°02' E 136°49'0 0.0
2018-Feb-21 07:29N 35°02' E 136°49'0 0.0
2018-Feb-21 06:59N 35°02' E 136°49'0 0.0
2018-Feb-21 06:29N 35°02' E 136°49'0 0.0
2018-Feb-21 05:59N 35°02' E 136°49'0 0.0
2018-Feb-21 05:29N 35°02' E 136°49'0 0.0
2018-Feb-21 04:59N 35°02' E 136°49'0 0.0
2018-Feb-21 04:29N 35°02' E 136°49'0 0.0
2018-Feb-21 03:59N 35°02' E 136°49'0 0.0
2018-Feb-21 03:30N 35°02' E 136°49'1 2.3
2018-Feb-21 03:00N 35°01' E 136°50'5 9.7
2018-Feb-21 02:30N 34°56' E 136°47'510.2
2018-Feb-21 02:00N 34°51' E 136°47'4 8.2
2018-Feb-21 01:30N 34°47' E 136°47'612.9
2018-Feb-21 01:00N 34°42' E 136°52'815.3
2018-Feb-21 00:30N 34°36' E 136°58'713.5
2018-Feb-21 00:00N 34°31' E 137°03'611.3
2018-Feb-20 23:30N 34°25' E 137°03'2915.0
2018-Feb-20 21:34N 33°59' E 136°48'118.6
2018-Feb-20 21:30N 33°59' E 136°47'1018.1
2018-Feb-20 20:59N 33°52' E 136°39'2418.3
2018-Feb-20 19:40N 33°36' E 136°17'6615.4
2018-Feb-20 15:21N 33°48' E 134°59'719.4
2018-Feb-20 15:01N 33°55' E 134°58'1020.0
2018-Feb-20 14:30N 34°05' E 134°58'917.7
2018-Feb-20 14:00N 34°14' E 134°58'613.1
2018-Feb-20 13:30N 34°20' E 134°59'917.8
2018-Feb-20 13:00N 34°27' E 135°06'1019.0
2018-Feb-20 12:30N 34°34' E 135°15'714.3
2018-Feb-20 12:00N 34°40' E 135°18'1 2.0
2018-Feb-20 11:30N 34°41' E 135°17'0 0.6
2018-Feb-20 10:58N 34°41' E 135°17'0 0.0
2018-Feb-20 10:28N 34°41' E 135°17'0 0.0
2018-Feb-20 09:58N 34°41' E 135°17'0 0.0
2018-Feb-20 09:28N 34°41' E 135°17'0 0.0
2018-Feb-20 08:58N 34°41' E 135°17'0 0.0
2018-Feb-20 08:28N 34°41' E 135°17'0 0.0
2018-Feb-20 07:58N 34°41' E 135°17'0 0.0
2018-Feb-20 07:28N 34°41' E 135°17'0 0.0
2018-Feb-20 06:58N 34°41' E 135°17'0 0.0
2018-Feb-20 06:28N 34°41' E 135°17'0 0.0
2018-Feb-20 05:58N 34°41' E 135°17'0 0.0
2018-Feb-20 05:28N 34°41' E 135°17'0 0.0
2018-Feb-20 04:58N 34°41' E 135°17'0 0.0
2018-Feb-20 04:28N 34°41' E 135°17'0 0.0
2018-Feb-20 03:58N 34°41' E 135°17'0 0.0
2018-Feb-20 03:28N 34°41' E 135°17'0 0.0
2018-Feb-20 02:58N 34°41' E 135°17'0 0.0
2018-Feb-20 02:28N 34°41' E 135°17'0 0.0
2018-Feb-20 01:58N 34°41' E 135°17'0 0.0
2018-Feb-20 01:28N 34°41' E 135°17'0 0.0
2018-Feb-20 00:58N 34°41' E 135°17'0 0.0
2018-Feb-20 00:28N 34°41' E 135°17'0 0.0
2018-Feb-19 23:58N 34°41' E 135°17'0 0.0
2018-Feb-19 23:28N 34°41' E 135°17'0 0.0
2018-Feb-19 22:58N 34°41' E 135°17'0 0.9
2018-Feb-19 22:30N 34°41' E 135°18'3 6.1
2018-Feb-19 22:00N 34°38' E 135°18'714.8
2018-Feb-19 21:31N 34°32' E 135°13'917.7
2018-Feb-19 21:00N 34°25' E 135°06'917.4
2018-Feb-19 20:31N 34°18' E 135°00'714.4
2018-Feb-19 20:01N 34°11' E 135°01'611.0
2018-Feb-19 19:31N 34°05' E 135°01'815.5
2018-Feb-19 19:00N 33°58' E 135°01'816.8
2018-Feb-19 18:30N 33°49' E 134°59'816.9
2018-Feb-19 18:00N 33°42' E 134°55'916.8
2018-Feb-19 17:30N 33°35' E 134°49'1217.0
2018-Feb-19 16:46N 33°25' E 134°40'78318.9
2018-Feb-17 23:15N 24°34' E 123°42'518.9
2018-Feb-17 23:01N 24°31' E 123°38'918.9
2018-Feb-17 22:31N 24°25' E 123°30'1019.1
2018-Feb-17 22:00N 24°18' E 123°23'918.4
2018-Feb-17 21:30N 24°11' E 123°16'918.6
2018-Feb-17 21:01N 24°03' E 123°11'918.8
2018-Feb-17 20:31N 23°55' E 123°06'1019.2
2018-Feb-17 20:00N 23°46' E 123°02'1019.1
2018-Feb-17 19:30N 23°38' E 122°56'  

Dump ship's entire track history